createdAt,value
2018-06-05T17:41:02.553Z,73.50
2018-06-05T17:43:30.961Z,73.60
2018-06-05T17:45:59.411Z,73.60
2018-06-05T17:48:27.821Z,73.30
2018-06-05T17:50:56.241Z,73.40
2018-06-05T17:53:25.126Z,73.80
2018-06-05T17:55:53.562Z,73.80
2018-06-05T17:58:21.974Z,73.50
2018-06-05T18:00:50.490Z,73.60
2018-06-05T18:05:47.031Z,73.90
2018-06-05T18:10:43.596Z,73.90
2018-06-05T18:15:40.132Z,73.30
2018-06-05T18:18:08.575Z,73.70
2018-06-05T18:20:37.007Z,73.80
2018-06-05T18:23:05.532Z,73.80
2018-06-05T18:25:36.861Z,73.50
2018-06-05T18:28:05.294Z,73.50
2018-06-05T18:30:33.711Z,73.60
2018-06-05T18:33:02.122Z,73.80
2018-06-05T18:35:30.606Z,73.80
2018-06-05T18:37:59.043Z,73.90
2018-06-05T18:40:27.644Z,73.80
2018-06-05T18:42:56.051Z,73.80
2018-06-05T18:45:24.494Z,74.10
2018-06-05T18:47:52.911Z,74.00
2018-06-05T18:50:21.327Z,74.00
2018-06-05T18:52:49.797Z,74.20
2018-06-05T18:55:18.267Z,74.10
2018-06-05T18:57:46.683Z,74.40
2018-06-05T19:00:15.071Z,74.40
2018-06-05T19:02:43.472Z,74.50
2018-06-05T19:05:11.892Z,74.60
2018-06-05T19:10:08.438Z,74.90
2018-06-05T19:12:36.842Z,75.00
2018-06-05T19:15:05.290Z,75.20
2018-06-05T19:17:33.774Z,75.40
2018-06-05T19:20:02.155Z,75.50
2018-06-05T19:22:30.574Z,75.60
2018-06-05T19:24:59.027Z,75.80
2018-06-05T19:27:27.499Z,75.90
2018-06-05T19:29:56.024Z,75.90
2018-06-05T19:32:24.422Z,76.20
2018-06-05T19:34:52.827Z,76.30
2018-06-05T19:37:21.238Z,76.50
2018-06-05T19:39:49.681Z,76.60
2018-06-05T19:42:18.111Z,76.70
2018-06-05T19:47:14.719Z,77.20
2018-06-05T19:49:43.137Z,77.40
2018-06-05T19:54:39.673Z,77.80
2018-06-05T19:57:08.086Z,78.10
2018-06-05T19:59:36.530Z,79.00
2018-06-05T20:02:04.999Z,78.70
2018-06-05T20:04:33.421Z,79.00
2018-06-05T20:07:01.851Z,79.20
2018-06-05T20:09:30.281Z,79.30
2018-06-05T20:11:58.751Z,79.70
2018-06-05T20:14:27.134Z,80.20
2018-06-05T20:16:55.548Z,80.80
2018-06-05T20:19:23.942Z,81.40
2018-06-05T20:21:52.374Z,81.90
2018-06-05T20:24:20.786Z,82.20
2018-06-05T20:26:49.390Z,82.60
2018-06-05T20:29:17.837Z,82.60
2018-06-05T20:31:46.236Z,82.40
2018-06-05T20:34:14.675Z,82.50
2018-06-05T20:36:43.083Z,82.60
2018-06-05T20:39:11.612Z,82.90
2018-06-05T20:41:40.039Z,83.10
2018-06-05T20:44:08.488Z,83.10
2018-06-05T20:49:05.283Z,83.50
2018-06-05T20:51:33.682Z,83.60
2018-06-05T20:54:02.282Z,83.80
2018-06-05T20:56:30.783Z,84.00
2018-06-05T21:01:27.327Z,84.80
2018-06-05T21:03:55.733Z,85.10
2018-06-05T21:06:24.206Z,85.40
2018-06-05T21:08:52.619Z,85.80
2018-06-05T21:11:21.032Z,85.90
2018-06-05T21:13:49.418Z,86.10
2018-06-05T21:16:17.829Z,86.40
2018-06-05T21:18:46.242Z,86.70
2018-06-05T21:21:14.700Z,86.90
2018-06-05T21:23:43.071Z,86.90
2018-06-05T21:26:11.498Z,87.00
2018-06-05T21:28:39.926Z,87.10
2018-06-05T21:31:08.346Z,87.20
2018-06-05T21:33:36.777Z,87.30
2018-06-05T21:36:05.272Z,87.60
2018-06-05T21:38:33.678Z,87.70
2018-06-05T21:41:02.076Z,87.60
2018-06-05T21:43:30.498Z,87.80
2018-06-05T21:45:58.891Z,87.90
2018-06-05T21:48:27.299Z,88.00
2018-06-05T21:50:55.706Z,88.10
2018-06-05T21:53:24.454Z,88.30
2018-06-05T21:55:52.896Z,88.30
2018-06-05T21:58:21.304Z,88.40
2018-06-05T22:01:00.837Z,88.50
2018-06-05T22:03:30.322Z,88.60
2018-06-05T22:05:58.742Z,88.60
2018-06-05T22:08:27.132Z,88.60
2018-06-05T22:10:55.529Z,88.50
2018-06-05T22:13:23.911Z,88.50
2018-06-05T22:15:52.343Z,88.50
2018-06-05T22:18:20.754Z,88.40
2018-06-05T22:20:49.150Z,88.30
2018-06-05T22:23:17.563Z,88.20
2018-06-05T22:25:45.986Z,88.30
2018-06-05T22:28:14.437Z,88.40
2018-06-05T22:30:42.830Z,88.40
2018-06-05T22:33:11.239Z,88.50
2018-06-05T22:35:39.639Z,88.40
2018-06-05T22:40:36.204Z,88.30
2018-06-05T22:45:32.709Z,88.10
2018-06-05T22:48:01.143Z,88.20
2018-06-05T22:50:29.539Z,88.10
2018-06-05T22:52:57.966Z,88.00
2018-06-05T22:55:26.397Z,88.20
2018-06-05T22:57:54.822Z,88.10
2018-06-05T23:00:34.287Z,88.00
2018-06-05T23:03:02.695Z,88.00
2018-06-05T23:05:31.178Z,88.10
2018-06-05T23:07:59.586Z,88.10
2018-06-05T23:10:28.031Z,88.20
2018-06-05T23:12:56.443Z,88.00
2018-06-05T23:15:24.896Z,88.00
2018-06-05T23:17:53.301Z,88.00
2018-06-05T23:20:21.733Z,88.00
2018-06-05T23:22:50.134Z,88.30
2018-06-05T23:25:18.538Z,88.30
2018-06-05T23:27:46.993Z,88.50
2018-06-05T23:30:15.421Z,88.80
2018-06-05T23:32:43.870Z,88.90
2018-06-05T23:35:12.298Z,89.00
2018-06-05T23:37:40.721Z,89.00
2018-06-05T23:40:09.112Z,89.20
2018-06-05T23:42:37.656Z,89.20
2018-06-05T23:45:06.098Z,90.00
2018-06-05T23:47:34.534Z,89.70
2018-06-05T23:50:02.939Z,89.70
2018-06-05T23:52:31.336Z,89.90
2018-06-05T23:54:59.758Z,89.80
2018-06-05T23:57:28.134Z,89.70
2018-06-05T23:59:56.567Z,89.50
